createdAt,value
2022-10-09T00:01:56.097Z,6.93
2022-10-09T00:04:26.144Z,7.08
2022-10-09T00:06:55.335Z,6.97
2022-10-09T00:09:24.415Z,6.80
2022-10-09T00:11:53.576Z,6.72
2022-10-09T00:14:24.169Z,6.73
2022-10-09T00:16:55.922Z,6.77
2022-10-09T00:19:25.206Z,6.78
2022-10-09T00:21:54.239Z,6.81
2022-10-09T00:24:24.114Z,6.68
2022-10-09T00:26:53.068Z,6.76
2022-10-09T00:29:25.056Z,6.72
2022-10-09T00:31:55.825Z,6.85
2022-10-09T00:34:24.904Z,6.85
2022-10-09T00:36:53.881Z,7.04
2022-10-09T00:39:23.910Z,7.01
2022-10-09T00:41:52.876Z,7.06
2022-10-09T00:44:53.053Z,7.05
2022-10-09T00:47:28.364Z,7.11
2022-10-09T00:50:05.012Z,7.36
2022-10-09T00:52:35.286Z,7.15
2022-10-09T00:55:07.962Z,6.99
2022-10-09T00:57:46.617Z,7.12
2022-10-09T01:00:17.537Z,7.07
2022-10-09T01:02:47.526Z,7.07
2022-10-09T01:05:19.470Z,7.14
2022-10-09T01:07:56.504Z,7.09
2022-10-09T01:10:33.653Z,7.14
2022-10-09T01:13:14.307Z,7.13
2022-10-09T01:15:51.014Z,7.07
2022-10-09T01:18:27.360Z,6.95
2022-10-09T01:21:01.847Z,6.90
2022-10-09T01:23:53.438Z,6.79
2022-10-09T01:26:39.703Z,6.77
2022-10-09T01:29:12.735Z,6.69
2022-10-09T01:31:45.286Z,6.46
2022-10-09T01:34:15.885Z,6.47
2022-10-09T01:36:46.727Z,6.52
2022-10-09T01:39:20.911Z,6.52
2022-10-09T01:41:52.558Z,6.57
2022-10-09T01:44:25.192Z,6.54
2022-10-09T01:46:54.756Z,6.64
2022-10-09T01:49:42.592Z,6.69
2022-10-09T01:52:26.195Z,6.63
2022-10-09T01:55:05.177Z,6.68
2022-10-09T01:57:39.685Z,6.64
2022-10-09T02:00:13.713Z,6.53
2022-10-09T02:02:44.908Z,6.50
2022-10-09T02:05:19.111Z,6.55
2022-10-09T02:07:48.731Z,6.64
2022-10-09T02:10:21.359Z,6.54
2022-10-09T02:12:54.916Z,6.52
2022-10-09T02:15:31.633Z,6.48
2022-10-09T02:18:08.413Z,6.32
2022-10-09T02:20:40.937Z,6.42
2022-10-09T02:23:11.121Z,6.29
2022-10-09T02:25:42.495Z,6.30
2022-10-09T02:28:12.221Z,6.24
2022-10-09T02:30:50.207Z,6.43
2022-10-09T02:33:19.377Z,6.64
2022-10-09T02:35:49.576Z,6.56
2022-10-09T02:38:18.947Z,6.51
2022-10-09T02:40:48.381Z,6.55
2022-10-09T02:43:17.393Z,6.40
2022-10-09T02:45:48.336Z,6.45
2022-10-09T02:48:18.675Z,6.42
2022-10-09T02:50:47.785Z,6.61
2022-10-09T02:53:16.929Z,6.72
2022-10-09T02:55:46.514Z,6.44
2022-10-09T02:58:15.788Z,6.31
2022-10-09T03:00:49.257Z,6.49
2022-10-09T03:03:21.774Z,6.58
2022-10-09T03:06:02.053Z,6.84
2022-10-09T03:08:32.651Z,6.74
2022-10-09T03:11:03.009Z,6.85
2022-10-09T03:13:32.615Z,6.73
2022-10-09T03:16:05.755Z,6.77
2022-10-09T03:18:36.407Z,6.74
2022-10-09T03:21:07.854Z,6.88
2022-10-09T03:23:37.441Z,6.93
2022-10-09T03:26:08.763Z,6.90
2022-10-09T03:28:38.766Z,6.81
2022-10-09T03:31:08.373Z,7.06
2022-10-09T03:33:39.417Z,7.15
2022-10-09T03:36:10.801Z,6.94
2022-10-09T03:38:40.697Z,7.15
2022-10-09T03:41:10.042Z,7.21
2022-10-09T03:43:39.134Z,7.11
2022-10-09T03:46:09.607Z,7.32
2022-10-09T03:48:43.324Z,7.70
2022-10-09T03:51:13.291Z,7.48
2022-10-09T03:53:44.751Z,7.45
2022-10-09T03:56:13.819Z,7.56
2022-10-09T03:58:43.611Z,7.72
2022-10-09T04:01:15.166Z,7.88
2022-10-09T04:03:50.097Z,7.79
2022-10-09T04:06:19.308Z,7.92
2022-10-09T04:08:48.648Z,8.04
2022-10-09T04:11:17.779Z,8.14
2022-10-09T04:13:46.951Z,8.13
2022-10-09T04:16:19.171Z,8.19
2022-10-09T04:18:50.222Z,8.27
2022-10-09T04:21:21.363Z,8.27
2022-10-09T04:23:52.591Z,8.20
2022-10-09T04:26:21.815Z,7.95
2022-10-09T04:28:52.992Z,7.62
2022-10-09T04:31:26.616Z,7.47
2022-10-09T04:34:00.180Z,7.44
2022-10-09T04:36:29.814Z,7.52
2022-10-09T04:38:58.824Z,7.63
2022-10-09T04:41:29.437Z,7.64
2022-10-09T04:43:58.958Z,7.65
2022-10-09T04:46:28.077Z,7.70
2022-10-09T04:48:57.123Z,7.75
2022-10-09T04:51:28.055Z,7.72
2022-10-09T04:54:00.574Z,7.81
2022-10-09T04:56:31.372Z,8.25
2022-10-09T04:59:20.307Z,8.30
2022-10-09T05:02:20.880Z,8.35
2022-10-09T05:04:57.394Z,8.40
2022-10-09T05:07:33.184Z,8.49
2022-10-09T05:10:11.359Z,8.59
2022-10-09T05:12:44.168Z,8.73
2022-10-09T05:15:16.034Z,8.88
2022-10-09T05:17:45.214Z,8.98
2022-10-09T05:20:16.277Z,8.97
2022-10-09T05:22:48.972Z,8.92
2022-10-09T05:25:19.314Z,9.51
2022-10-09T05:27:48.483Z,9.86
2022-10-09T05:30:18.155Z,10.11
2022-10-09T05:32:47.691Z,10.09
2022-10-09T05:35:17.040Z,9.96
2022-10-09T05:37:47.592Z,10.15
2022-10-09T05:40:16.946Z,10.46
2022-10-09T05:42:46.655Z,10.58
2022-10-09T05:45:17.272Z,10.91
2022-10-09T05:47:46.306Z,11.03
2022-10-09T05:50:15.644Z,11.04
2022-10-09T05:52:44.727Z,11.01
2022-10-09T05:55:20.271Z,11.34
2022-10-09T05:57:50.958Z,11.77
2022-10-09T06:00:20.575Z,11.42
2022-10-09T06:02:50.131Z,11.56
2022-10-09T06:05:26.329Z,11.54
2022-10-09T06:07:56.976Z,11.70
2022-10-09T06:10:32.493Z,11.70
2022-10-09T06:13:02.186Z,11.80
2022-10-09T06:15:36.522Z,11.76
2022-10-09T06:18:07.311Z,11.81
2022-10-09T06:20:36.426Z,11.75
2022-10-09T06:23:08.040Z,11.67
2022-10-09T06:25:40.269Z,11.64
2022-10-09T06:28:11.198Z,11.88
2022-10-09T06:30:41.478Z,11.90
2022-10-09T06:33:12.021Z,11.95
2022-10-09T06:35:45.080Z,12.02
2022-10-09T06:38:18.897Z,11.97
2022-10-09T06:40:54.948Z,11.81
2022-10-09T06:43:27.062Z,11.85
2022-10-09T06:45:58.711Z,11.90
2022-10-09T06:48:32.621Z,11.81
2022-10-09T06:51:06.069Z,11.93
2022-10-09T06:56:33.973Z,12.22
2022-10-09T06:59:05.283Z,12.30
2022-10-09T07:01:36.272Z,12.12
2022-10-09T07:04:12.473Z,12.14
2022-10-09T07:06:52.624Z,12.14
2022-10-09T07:09:27.723Z,12.30
2022-10-09T07:12:03.005Z,12.59
2022-10-09T07:14:41.328Z,12.57
2022-10-09T07:17:19.400Z,12.56
2022-10-09T07:19:55.767Z,12.49
2022-10-09T07:22:33.767Z,12.64
2022-10-09T07:25:12.201Z,12.85
2022-10-09T07:27:44.681Z,12.97
2022-10-09T07:30:17.805Z,13.09
2022-10-09T07:32:48.515Z,13.59
2022-10-09T07:35:19.540Z,13.70
2022-10-09T07:37:49.405Z,13.88
2022-10-09T07:40:20.655Z,14.02
2022-10-09T07:43:08.394Z,13.85
2022-10-09T07:45:41.325Z,13.80
2022-10-09T07:48:13.067Z,13.93
2022-10-09T07:50:44.040Z,14.10
2022-10-09T07:53:15.414Z,14.08
2022-10-09T07:55:48.457Z,14.12
2022-10-09T07:58:23.070Z,14.29
2022-10-09T08:00:55.793Z,14.36
2022-10-09T08:03:27.864Z,14.34
2022-10-09T08:05:58.755Z,14.25
2022-10-09T08:08:28.899Z,14.26
2022-10-09T08:10:58.859Z,14.21
2022-10-09T08:13:39.180Z,14.37
2022-10-09T08:16:15.036Z,14.53
2022-10-09T08:19:16.185Z,14.81
2022-10-09T08:22:07.312Z,14.83
2022-10-09T08:25:15.297Z,14.89
2022-10-09T08:27:56.098Z,14.96
2022-10-09T08:30:28.604Z,14.93
2022-10-09T08:33:13.800Z,14.94
2022-10-09T08:35:47.010Z,14.96
2022-10-09T08:38:45.443Z,15.14
2022-10-09T08:41:21.313Z,14.96
2022-10-09T08:43:57.105Z,15.13
2022-10-09T08:46:50.940Z,15.31
2022-10-09T08:49:40.676Z,15.33
2022-10-09T08:52:23.948Z,15.50
2022-10-09T08:55:30.260Z,15.54
2022-10-09T09:02:31.405Z,15.56
2022-10-09T09:24:08.771Z,16.19
2022-10-09T09:26:48.667Z,16.06
2022-10-09T09:29:24.215Z,16.05
2022-10-09T09:32:24.557Z,16.15
2022-10-09T09:35:26.946Z,16.16
2022-10-09T09:38:19.803Z,16.29
2022-10-09T09:40:52.053Z,16.43
2022-10-09T09:43:23.653Z,16.64
2022-10-09T09:45:56.897Z,16.75
2022-10-09T09:48:36.793Z,16.41
2022-10-09T09:51:27.453Z,16.33
2022-10-09T09:54:05.181Z,16.40
2022-10-09T10:07:00.950Z,17.10
2022-10-09T10:09:42.657Z,17.12
2022-10-09T10:12:19.347Z,17.41
2022-10-09T10:14:52.029Z,17.26
2022-10-09T10:17:30.266Z,17.17
2022-10-09T10:20:00.786Z,17.12
2022-10-09T10:22:32.928Z,17.11
2022-10-09T10:25:03.622Z,17.19
2022-10-09T10:27:53.235Z,17.23
2022-10-09T10:30:39.463Z,17.05
2022-10-09T10:36:24.932Z,17.46
2022-10-09T10:39:11.856Z,17.86
2022-10-09T10:41:54.106Z,18.04
2022-10-09T10:45:02.807Z,18.03
2022-10-09T10:47:49.336Z,17.98
2022-10-09T10:50:32.616Z,18.01
2022-10-09T10:53:20.400Z,18.13
2022-10-09T10:56:07.726Z,18.23
2022-10-09T10:58:50.840Z,18.12
2022-10-09T11:01:44.743Z,18.22
2022-10-09T11:04:39.957Z,18.13
2022-10-09T11:07:24.386Z,18.21
2022-10-09T11:10:35.683Z,18.18
2022-10-09T11:13:18.932Z,18.17
2022-10-09T11:16:25.266Z,18.17
2022-10-09T11:19:34.247Z,17.93
2022-10-09T11:22:22.672Z,17.78
2022-10-09T11:25:41.058Z,17.89
2022-10-09T11:28:22.604Z,18.37
2022-10-09T11:31:03.433Z,18.36
2022-10-09T11:33:46.033Z,18.00
2022-10-09T11:36:40.005Z,18.02
2022-10-09T11:39:25.821Z,18.19
2022-10-09T11:42:08.649Z,18.06
2022-10-09T11:44:55.384Z,17.70
2022-10-09T11:48:02.203Z,17.60
2022-10-09T11:50:53.170Z,17.54
2022-10-09T11:57:15.793Z,17.38
2022-10-09T12:00:10.137Z,17.39
2022-10-09T12:03:01.356Z,17.28
2022-10-09T12:06:08.060Z,17.08
2022-10-09T12:08:57.915Z,16.81
2022-10-09T12:11:42.253Z,16.71
2022-10-09T12:14:33.882Z,16.62
2022-10-09T12:17:36.567Z,16.72
2022-10-09T12:20:19.333Z,16.92
2022-10-09T12:23:28.890Z,16.89
2022-10-09T12:26:07.127Z,16.87
2022-10-09T12:28:53.386Z,16.65
2022-10-09T12:31:59.282Z,16.51
2022-10-09T12:34:59.419Z,16.47
2022-10-09T12:43:26.622Z,16.24
2022-10-09T12:46:15.805Z,16.14
2022-10-09T12:49:03.504Z,16.06
2022-10-09T12:52:00.241Z,16.07
2022-10-09T12:54:52.209Z,15.97
2022-10-09T12:57:41.556Z,15.94
2022-10-09T13:00:45.394Z,15.97
2022-10-09T13:03:46.998Z,15.95
2022-10-09T13:06:24.254Z,15.88
2022-10-09T13:08:56.733Z,15.76
2022-10-09T13:11:38.380Z,16.05
2022-10-09T13:14:09.123Z,15.98
2022-10-09T13:16:42.708Z,15.86
2022-10-09T13:19:23.893Z,15.70
2022-10-09T13:22:21.213Z,15.81
2022-10-09T13:24:54.497Z,15.82
2022-10-09T13:27:26.930Z,15.72
2022-10-09T13:30:21.147Z,15.61
2022-10-09T13:32:51.105Z,15.68
2022-10-09T13:35:21.626Z,15.62
2022-10-09T13:37:55.221Z,15.52
2022-10-09T13:40:27.961Z,15.42
2022-10-09T13:43:14.246Z,15.48
2022-10-09T13:45:48.497Z,15.44
2022-10-09T13:48:25.902Z,15.25
2022-10-09T13:51:41.209Z,15.19
2022-10-09T13:54:15.713Z,15.29
2022-10-09T13:56:48.000Z,15.24
2022-10-09T13:59:18.359Z,15.07
2022-10-09T14:01:49.201Z,14.92
2022-10-09T14:04:21.992Z,14.31
2022-10-09T14:06:56.960Z,13.92
2022-10-09T14:09:36.027Z,13.66
2022-10-09T14:12:06.332Z,13.32
2022-10-09T14:14:36.418Z,13.13
2022-10-09T14:17:05.827Z,12.98
2022-10-09T14:19:39.715Z,12.77
2022-10-09T14:22:15.491Z,12.70
2022-10-09T14:24:55.072Z,12.63
2022-10-09T14:27:25.831Z,12.55
2022-10-09T14:29:59.893Z,12.42
2022-10-09T14:32:36.544Z,12.32
2022-10-09T14:37:40.006Z,12.17
2022-10-09T14:50:12.625Z,11.79
2022-10-09T14:54:05.692Z,11.75
2022-10-09T15:01:42.299Z,11.55
2022-10-09T15:10:54.664Z,11.49
2022-10-09T15:13:31.196Z,11.42
2022-10-09T15:16:13.993Z,11.41
2022-10-09T15:19:52.728Z,11.36
2022-10-09T15:23:10.037Z,11.26
2022-10-09T15:26:03.697Z,11.24
2022-10-09T15:29:05.512Z,11.17
2022-10-09T15:32:01.633Z,11.14
2022-10-09T15:35:09.437Z,11.06
2022-10-09T15:38:54.646Z,10.61
2022-10-09T15:42:12.969Z,10.46
2022-10-09T15:53:38.283Z,9.70
2022-10-09T15:56:40.343Z,9.58
2022-10-09T15:59:26.581Z,9.52
2022-10-09T16:02:26.604Z,9.48
2022-10-09T16:05:17.886Z,9.44
2022-10-09T16:07:59.940Z,9.42
2022-10-09T17:10:59.490Z,9.08
2022-10-09T17:18:42.092Z,9.08
2022-10-09T17:38:34.942Z,9.09
2022-10-09T17:41:22.185Z,9.07
2022-10-09T17:45:11.289Z,9.04
2022-10-09T17:48:00.142Z,9.03
2022-10-09T17:51:17.266Z,9.02
2022-10-09T18:38:12.470Z,8.76
2022-10-09T18:56:19.272Z,8.78
2022-10-09T19:04:25.342Z,9.03
2022-10-09T19:08:47.311Z,9.04
2022-10-09T19:29:16.997Z,8.86
2022-10-09T19:32:35.616Z,8.88
2022-10-09T19:38:43.627Z,9.00
2022-10-09T19:41:33.186Z,8.91
2022-10-09T19:44:10.772Z,8.88
2022-10-09T19:46:42.194Z,8.86
2022-10-09T19:49:12.514Z,8.79
2022-10-09T19:52:08.960Z,8.76
2022-10-09T19:55:47.812Z,8.68
2022-10-09T20:02:34.291Z,8.70
2022-10-09T20:06:01.833Z,8.67
2022-10-09T20:09:01.600Z,8.65
2022-10-09T20:11:57.943Z,8.71
2022-10-09T20:20:37.678Z,8.71
2022-10-09T20:24:52.503Z,8.72
2022-10-09T20:31:44.534Z,8.91
2022-10-09T20:35:09.076Z,8.90
2022-10-09T20:42:47.485Z,8.85
2022-10-09T20:58:53.011Z,8.82
2022-10-09T21:02:51.600Z,8.81
2022-10-09T21:11:30.176Z,8.83
2022-10-09T21:15:15.813Z,8.78
2022-10-09T21:18:31.355Z,8.78
2022-10-09T21:21:24.486Z,8.73
2022-10-09T21:24:38.663Z,8.76
2022-10-09T21:27:44.176Z,8.73
2022-10-09T21:30:56.108Z,8.76
2022-10-09T21:33:35.456Z,8.74
2022-10-09T21:39:01.056Z,8.72
2022-10-09T21:41:39.915Z,8.72
2022-10-09T21:44:13.214Z,8.72
2022-10-09T21:46:44.926Z,8.70
2022-10-09T21:49:27.385Z,8.71
2022-10-09T21:51:58.949Z,8.67
2022-10-09T21:54:30.683Z,8.65
2022-10-09T21:57:15.138Z,8.67
2022-10-09T21:59:49.938Z,8.66
2022-10-09T22:02:44.868Z,8.64
2022-10-09T22:05:17.580Z,8.67
2022-10-09T22:07:48.660Z,8.68
2022-10-09T22:10:22.864Z,8.66
2022-10-09T22:13:05.928Z,8.65
2022-10-09T22:15:51.310Z,8.63
2022-10-09T22:18:25.625Z,8.69
2022-10-09T22:20:55.610Z,8.66
2022-10-09T22:23:25.226Z,8.65
2022-10-09T22:26:03.572Z,8.63
2022-10-09T22:28:37.610Z,8.64
2022-10-09T22:31:09.288Z,8.59
2022-10-09T22:33:43.773Z,8.56
2022-10-09T22:36:14.806Z,8.53
2022-10-09T22:38:45.824Z,8.53
2022-10-09T22:41:19.827Z,8.58
2022-10-09T22:44:08.298Z,8.51
2022-10-09T22:46:40.725Z,8.47
2022-10-09T22:49:17.362Z,8.46
2022-10-09T22:51:51.808Z,8.42
2022-10-09T22:54:22.411Z,8.39
2022-10-09T22:56:56.884Z,8.36
2022-10-09T22:59:34.500Z,8.36
2022-10-09T23:02:13.414Z,8.31
2022-10-09T23:04:53.608Z,8.28
2022-10-09T23:07:42.747Z,8.28
2022-10-09T23:10:23.923Z,8.24
2022-10-09T23:12:55.505Z,8.25
2022-10-09T23:15:28.001Z,8.30
2022-10-09T23:18:06.424Z,8.29
2022-10-09T23:20:41.515Z,8.26
2022-10-09T23:23:18.399Z,8.21
2022-10-09T23:25:53.104Z,8.24
2022-10-09T23:28:23.427Z,8.19
2022-10-09T23:31:03.035Z,8.23
2022-10-09T23:33:34.070Z,8.25
2022-10-09T23:36:09.919Z,8.24
2022-10-09T23:38:44.958Z,8.22
2022-10-09T23:41:18.716Z,8.21
2022-10-09T23:43:51.555Z,8.23
2022-10-09T23:46:26.630Z,8.19
2022-10-09T23:49:19.395Z,8.19
2022-10-09T23:51:56.419Z,8.19
2022-10-09T23:54:36.128Z,8.21
2022-10-09T23:57:13.854Z,8.20
2022-10-09T23:59:47.581Z,8.21
